sensor_id;sensor_type;location;lat;lon;timestamp;P1;durP1;ratioP1;P2;durP2;ratioP2
920;SDS011;447;51.332;6.778;2024-03-08T00:00:24;16.93;;;12.63;;
920;SDS011;447;51.332;6.778;2024-03-08T00:02:49;14.43;;;12.73;;
920;SDS011;447;51.332;6.778;2024-03-08T00:05:19;14.73;;;12.00;;
920;SDS011;447;51.332;6.778;2024-03-08T00:07:48;14.80;;;11.50;;
920;SDS011;447;51.332;6.778;2024-03-08T00:10:16;15.57;;;12.90;;
920;SDS011;447;51.332;6.778;2024-03-08T00:12:44;17.90;;;12.47;;
920;SDS011;447;51.332;6.778;2024-03-08T00:15:10;18.23;;;13.47;;
920;SDS011;447;51.332;6.778;2024-03-08T00:17:40;15.03;;;12.80;;
920;SDS011;447;51.332;6.778;2024-03-08T00:20:06;15.10;;;12.83;;
920;SDS011;447;51.332;6.778;2024-03-08T00:22:37;15.20;;;12.10;;
920;SDS011;447;51.332;6.778;2024-03-08T00:25:07;14.13;;;11.93;;
920;SDS011;447;51.332;6.778;2024-03-08T00:27:34;13.07;;;11.60;;
920;SDS011;447;51.332;6.778;2024-03-08T00:30:01;13.50;;;11.70;;
920;SDS011;447;51.332;6.778;2024-03-08T00:32:30;14.87;;;12.03;;
920;SDS011;447;51.332;6.778;2024-03-08T00:34:59;13.67;;;12.17;;
920;SDS011;447;51.332;6.778;2024-03-08T00:37:27;13.40;;;12.00;;
920;SDS011;447;51.332;6.778;2024-03-08T00:39:54;13.03;;;11.60;;
920;SDS011;447;51.332;6.778;2024-03-08T00:42:20;15.73;;;12.47;;
920;SDS011;447;51.332;6.778;2024-03-08T00:44:46;14.20;;;12.17;;
920;SDS011;447;51.332;6.778;2024-03-08T00:47:13;13.70;;;12.27;;
920;SDS011;447;51.332;6.778;2024-03-08T00:49:41;15.60;;;13.20;;
920;SDS011;447;51.332;6.778;2024-03-08T00:52:07;17.03;;;13.57;;
920;SDS011;447;51.332;6.778;2024-03-08T00:54:34;14.00;;;12.20;;
920;SDS011;447;51.332;6.778;2024-03-08T00:57:01;15.60;;;13.10;;
920;SDS011;447;51.332;6.778;2024-03-08T00:59:28;15.03;;;12.40;;
920;SDS011;447;51.332;6.778;2024-03-08T01:02:01;15.23;;;13.00;;
920;SDS011;447;51.332;6.778;2024-03-08T01:04:27;15.33;;;12.60;;
920;SDS011;447;51.332;6.778;2024-03-08T01:06:56;15.40;;;12.23;;
920;SDS011;447;51.332;6.778;2024-03-08T01:09:24;14.27;;;12.77;;
920;SDS011;447;51.332;6.778;2024-03-08T01:11:52;13.93;;;12.53;;
920;SDS011;447;51.332;6.778;2024-03-08T01:14:19;13.23;;;11.83;;
920;SDS011;447;51.332;6.778;2024-03-08T01:16:51;13.93;;;12.53;;
920;SDS011;447;51.332;6.778;2024-03-08T01:19:17;15.50;;;13.60;;
920;SDS011;447;51.332;6.778;2024-03-08T01:21:43;12.87;;;11.50;;
920;SDS011;447;51.332;6.778;2024-03-08T01:24:14;15.40;;;12.70;;
920;SDS011;447;51.332;6.778;2024-03-08T01:26:42;16.03;;;13.47;;
920;SDS011;447;51.332;6.778;2024-03-08T01:29:08;19.40;;;12.63;;
920;SDS011;447;51.332;6.778;2024-03-08T01:31:37;13.80;;;11.50;;
920;SDS011;447;51.332;6.778;2024-03-08T01:34:03;15.40;;;12.70;;
920;SDS011;447;51.332;6.778;2024-03-08T01:36:31;13.53;;;11.70;;
920;SDS011;447;51.332;6.778;2024-03-08T01:38:57;15.80;;;12.53;;
920;SDS011;447;51.332;6.778;2024-03-08T01:41:23;16.07;;;13.03;;
920;SDS011;447;51.332;6.778;2024-03-08T01:43:49;13.53;;;11.83;;
920;SDS011;447;51.332;6.778;2024-03-08T01:46:17;16.63;;;12.60;;
920;SDS011;447;51.332;6.778;2024-03-08T01:48:47;13.37;;;11.43;;
920;SDS011;447;51.332;6.778;2024-03-08T01:51:15;13.30;;;11.80;;
920;SDS011;447;51.332;6.778;2024-03-08T01:53:41;15.30;;;12.73;;
920;SDS011;447;51.332;6.778;2024-03-08T01:56:11;17.77;;;12.23;;
920;SDS011;447;51.332;6.778;2024-03-08T01:58:40;14.67;;;13.07;;
920;SDS011;447;51.332;6.778;2024-03-08T02:01:12;15.60;;;11.87;;
920;SDS011;447;51.332;6.778;2024-03-08T02:03:43;16.00;;;12.70;;
920;SDS011;447;51.332;6.778;2024-03-08T02:06:12;14.00;;;12.50;;
920;SDS011;447;51.332;6.778;2024-03-08T02:08:47;14.60;;;12.67;;
920;SDS011;447;51.332;6.778;2024-03-08T02:11:18;16.20;;;13.70;;
920;SDS011;447;51.332;6.778;2024-03-08T02:13:48;16.60;;;13.53;;
920;SDS011;447;51.332;6.778;2024-03-08T02:16:19;16.10;;;12.80;;
920;SDS011;447;51.332;6.778;2024-03-08T02:18:49;15.13;;;12.30;;
920;SDS011;447;51.332;6.778;2024-03-08T02:21:16;16.40;;;12.40;;
920;SDS011;447;51.332;6.778;2024-03-08T02:23:46;14.90;;;12.03;;
920;SDS011;447;51.332;6.778;2024-03-08T02:26:12;13.63;;;11.87;;
920;SDS011;447;51.332;6.778;2024-03-08T02:28:38;16.33;;;13.73;;
920;SDS011;447;51.332;6.778;2024-03-08T02:31:05;14.67;;;12.80;;
920;SDS011;447;51.332;6.778;2024-03-08T02:33:33;15.87;;;12.27;;
920;SDS011;447;51.332;6.778;2024-03-08T02:35:59;14.97;;;12.60;;
920;SDS011;447;51.332;6.778;2024-03-08T02:38:25;15.30;;;11.43;;
920;SDS011;447;51.332;6.778;2024-03-08T02:40:56;15.30;;;12.37;;
920;SDS011;447;51.332;6.778;2024-03-08T02:43:25;15.30;;;12.17;;
920;SDS011;447;51.332;6.778;2024-03-08T02:45:51;16.10;;;12.53;;
920;SDS011;447;51.332;6.778;2024-03-08T02:48:20;18.20;;;12.33;;
920;SDS011;447;51.332;6.778;2024-03-08T02:50:52;13.17;;;11.80;;
920;SDS011;447;51.332;6.778;2024-03-08T02:53:18;15.67;;;12.50;;
920;SDS011;447;51.332;6.778;2024-03-08T02:55:45;14.90;;;11.80;;
920;SDS011;447;51.332;6.778;2024-03-08T02:58:15;13.37;;;11.93;;
920;SDS011;447;51.332;6.778;2024-03-08T03:00:41;13.70;;;12.20;;
920;SDS011;447;51.332;6.778;2024-03-08T03:03:12;15.03;;;12.87;;
920;SDS011;447;51.332;6.778;2024-03-08T03:05:38;15.77;;;12.20;;
920;SDS011;447;51.332;6.778;2024-03-08T03:08:09;19.33;;;12.63;;
920;SDS011;447;51.332;6.778;2024-03-08T03:10:36;13.50;;;11.80;;
920;SDS011;447;51.332;6.778;2024-03-08T03:13:03;15.37;;;11.63;;
920;SDS011;447;51.332;6.778;2024-03-08T03:15:30;14.47;;;11.73;;
920;SDS011;447;51.332;6.778;2024-03-08T03:17:59;16.27;;;12.83;;
920;SDS011;447;51.332;6.778;2024-03-08T03:20:27;13.93;;;12.50;;
920;SDS011;447;51.332;6.778;2024-03-08T03:22:58;16.87;;;12.23;;
920;SDS011;447;51.332;6.778;2024-03-08T03:25:27;13.63;;;12.20;;
920;SDS011;447;51.332;6.778;2024-03-08T03:27:59;15.27;;;12.67;;
920;SDS011;447;51.332;6.778;2024-03-08T03:30:26;15.97;;;12.20;;
920;SDS011;447;51.332;6.778;2024-03-08T03:32:52;15.23;;;12.50;;
920;SDS011;447;51.332;6.778;2024-03-08T03:35:20;15.00;;;12.30;;
920;SDS011;447;51.332;6.778;2024-03-08T03:37:48;13.03;;;11.67;;
920;SDS011;447;51.332;6.778;2024-03-08T03:40:28;15.73;;;13.77;;
920;SDS011;447;51.332;6.778;2024-03-08T03:42:55;13.73;;;12.27;;
920;SDS011;447;51.332;6.778;2024-03-08T03:45:25;14.73;;;11.70;;
920;SDS011;447;51.332;6.778;2024-03-08T03:47:51;18.33;;;12.50;;
920;SDS011;447;51.332;6.778;2024-03-08T03:50:18;13.63;;;12.10;;
920;SDS011;447;51.332;6.778;2024-03-08T03:52:52;15.13;;;12.37;;
920;SDS011;447;51.332;6.778;2024-03-08T03:55:18;14.40;;;12.50;;
920;SDS011;447;51.332;6.778;2024-03-08T03:57:45;14.83;;;12.83;;
920;SDS011;447;51.332;6.778;2024-03-08T04:00:13;15.50;;;13.57;;
920;SDS011;447;51.332;6.778;2024-03-08T04:02:41;14.90;;;12.00;;
920;SDS011;447;51.332;6.778;2024-03-08T04:05:10;18.23;;;13.00;;
920;SDS011;447;51.332;6.778;2024-03-08T04:07:41;15.00;;;13.13;;
920;SDS011;447;51.332;6.778;2024-03-08T04:10:10;12.37;;;11.13;;
920;SDS011;447;51.332;6.778;2024-03-08T04:12:40;16.47;;;13.30;;
920;SDS011;447;51.332;6.778;2024-03-08T04:15:06;13.23;;;11.80;;
920;SDS011;447;51.332;6.778;2024-03-08T04:17:33;14.70;;;13.17;;
920;SDS011;447;51.332;6.778;2024-03-08T04:20:05;14.20;;;11.47;;
920;SDS011;447;51.332;6.778;2024-03-08T04:22:39;15.60;;;12.17;;
920;SDS011;447;51.332;6.778;2024-03-08T04:25:06;14.30;;;12.77;;
920;SDS011;447;51.332;6.778;2024-03-08T04:27:38;15.07;;;12.13;;
920;SDS011;447;51.332;6.778;2024-03-08T04:30:04;17.20;;;12.73;;
920;SDS011;447;51.332;6.778;2024-03-08T04:32:33;15.73;;;12.60;;
920;SDS011;447;51.332;6.778;2024-03-08T04:34:59;14.47;;;12.80;;
920;SDS011;447;51.332;6.778;2024-03-08T04:37:27;14.60;;;12.60;;
920;SDS011;447;51.332;6.778;2024-03-08T04:39:55;15.57;;;13.10;;
920;SDS011;447;51.332;6.778;2024-03-08T04:42:21;16.40;;;13.40;;
920;SDS011;447;51.332;6.778;2024-03-08T04:44:48;16.63;;;12.83;;
920;SDS011;447;51.332;6.778;2024-03-08T04:47:14;16.17;;;13.33;;
920;SDS011;447;51.332;6.778;2024-03-08T04:49:41;15.13;;;13.03;;
920;SDS011;447;51.332;6.778;2024-03-08T04:52:12;14.93;;;12.23;;
920;SDS011;447;51.332;6.778;2024-03-08T04:54:38;19.10;;;13.37;;
920;SDS011;447;51.332;6.778;2024-03-08T04:57:04;18.20;;;14.20;;
920;SDS011;447;51.332;6.778;2024-03-08T04:59:30;16.83;;;12.60;;
920;SDS011;447;51.332;6.778;2024-03-08T05:01:56;17.93;;;14.37;;
920;SDS011;447;51.332;6.778;2024-03-08T05:04:23;16.57;;;13.03;;
920;SDS011;447;51.332;6.778;2024-03-08T05:06:51;17.10;;;13.00;;
920;SDS011;447;51.332;6.778;2024-03-08T05:09:19;18.10;;;13.60;;
920;SDS011;447;51.332;6.778;2024-03-08T05:11:48;16.43;;;13.93;;
920;SDS011;447;51.332;6.778;2024-03-08T05:14:14;16.53;;;14.03;;
920;SDS011;447;51.332;6.778;2024-03-08T05:16:46;16.40;;;12.73;;
920;SDS011;447;51.332;6.778;2024-03-08T05:19:15;17.43;;;13.67;;
920;SDS011;447;51.332;6.778;2024-03-08T05:21:45;14.10;;;12.60;;
920;SDS011;447;51.332;6.778;2024-03-08T05:24:15;16.43;;;13.57;;
920;SDS011;447;51.332;6.778;2024-03-08T05:26:44;18.20;;;13.93;;
920;SDS011;447;51.332;6.778;2024-03-08T05:29:11;15.77;;;13.70;;
920;SDS011;447;51.332;6.778;2024-03-08T05:31:49;16.80;;;13.80;;
920;SDS011;447;51.332;6.778;2024-03-08T05:34:21;15.80;;;13.83;;
920;SDS011;447;51.332;6.778;2024-03-08T05:36:49;16.40;;;14.00;;
920;SDS011;447;51.332;6.778;2024-03-08T05:39:16;16.60;;;12.93;;
920;SDS011;447;51.332;6.778;2024-03-08T05:41:45;17.70;;;14.37;;
920;SDS011;447;51.332;6.778;2024-03-08T05:44:12;16.10;;;13.50;;
920;SDS011;447;51.332;6.778;2024-03-08T05:46:43;16.30;;;13.63;;
920;SDS011;447;51.332;6.778;2024-03-08T05:49:09;16.93;;;14.40;;
920;SDS011;447;51.332;6.778;2024-03-08T05:51:39;16.47;;;13.37;;
920;SDS011;447;51.332;6.778;2024-03-08T05:54:06;16.57;;;13.83;;
920;SDS011;447;51.332;6.778;2024-03-08T05:56:39;16.30;;;13.10;;
920;SDS011;447;51.332;6.778;2024-03-08T05:59:09;17.83;;;14.30;;
920;SDS011;447;51.332;6.778;2024-03-08T06:01:36;15.90;;;13.10;;
920;SDS011;447;51.332;6.778;2024-03-08T06:04:07;17.43;;;14.33;;
920;SDS011;447;51.332;6.778;2024-03-08T06:06:33;17.57;;;13.23;;
920;SDS011;447;51.332;6.778;2024-03-08T06:08:59;19.03;;;15.07;;
920;SDS011;447;51.332;6.778;2024-03-08T06:11:25;17.73;;;14.93;;
920;SDS011;447;51.332;6.778;2024-03-08T06:13:57;19.10;;;13.60;;
920;SDS011;447;51.332;6.778;2024-03-08T06:16:28;16.57;;;13.30;;
920;SDS011;447;51.332;6.778;2024-03-08T06:18:55;16.27;;;14.43;;
920;SDS011;447;51.332;6.778;2024-03-08T06:21:27;22.17;;;14.70;;
920;SDS011;447;51.332;6.778;2024-03-08T06:23:55;19.13;;;14.07;;
920;SDS011;447;51.332;6.778;2024-03-08T06:26:23;16.10;;;13.30;;
920;SDS011;447;51.332;6.778;2024-03-08T06:28:52;19.50;;;14.73;;
920;SDS011;447;51.332;6.778;2024-03-08T06:31:19;19.27;;;14.00;;
920;SDS011;447;51.332;6.778;2024-03-08T06:33:45;17.90;;;14.00;;
920;SDS011;447;51.332;6.778;2024-03-08T06:36:11;19.60;;;14.10;;
920;SDS011;447;51.332;6.778;2024-03-08T06:38:40;17.13;;;14.83;;
920;SDS011;447;51.332;6.778;2024-03-08T06:41:10;19.13;;;14.00;;
920;SDS011;447;51.332;6.778;2024-03-08T06:43:41;16.73;;;13.83;;
920;SDS011;447;51.332;6.778;2024-03-08T06:46:12;19.03;;;15.40;;
920;SDS011;447;51.332;6.778;2024-03-08T06:48:44;18.17;;;14.27;;
920;SDS011;447;51.332;6.778;2024-03-08T06:51:14;19.00;;;15.33;;
920;SDS011;447;51.332;6.778;2024-03-08T06:53:40;19.97;;;14.50;;
920;SDS011;447;51.332;6.778;2024-03-08T06:56:09;18.60;;;15.17;;
920;SDS011;447;51.332;6.778;2024-03-08T06:58:35;20.07;;;15.67;;
920;SDS011;447;51.332;6.778;2024-03-08T07:01:04;19.00;;;15.30;;
920;SDS011;447;51.332;6.778;2024-03-08T07:03:33;19.63;;;15.37;;
920;SDS011;447;51.332;6.778;2024-03-08T07:05:59;17.33;;;14.80;;
920;SDS011;447;51.332;6.778;2024-03-08T07:08:28;19.00;;;15.10;;
920;SDS011;447;51.332;6.778;2024-03-08T07:10:56;21.07;;;16.10;;
920;SDS011;447;51.332;6.778;2024-03-08T07:13:23;20.80;;;16.60;;
920;SDS011;447;51.332;6.778;2024-03-08T07:15:50;22.13;;;16.33;;
920;SDS011;447;51.332;6.778;2024-03-08T07:18:17;20.17;;;15.70;;
920;SDS011;447;51.332;6.778;2024-03-08T07:20:46;19.57;;;15.50;;
920;SDS011;447;51.332;6.778;2024-03-08T07:23:12;18.47;;;15.67;;
920;SDS011;447;51.332;6.778;2024-03-08T07:26:00;23.90;;;16.27;;
920;SDS011;447;51.332;6.778;2024-03-08T07:28:27;22.40;;;16.00;;
920;SDS011;447;51.332;6.778;2024-03-08T07:30:53;23.67;;;16.40;;
920;SDS011;447;51.332;6.778;2024-03-08T07:33:33;20.47;;;15.67;;
920;SDS011;447;51.332;6.778;2024-03-08T07:35:59;22.93;;;16.47;;
920;SDS011;447;51.332;6.778;2024-03-08T07:38:28;20.80;;;16.33;;
920;SDS011;447;51.332;6.778;2024-03-08T07:40:55;22.23;;;15.60;;
920;SDS011;447;51.332;6.778;2024-03-08T07:43:22;22.10;;;16.43;;
920;SDS011;447;51.332;6.778;2024-03-08T07:45:49;19.67;;;14.87;;
920;SDS011;447;51.332;6.778;2024-03-08T07:48:15;23.40;;;15.77;;
920;SDS011;447;51.332;6.778;2024-03-08T07:50:44;19.43;;;14.67;;
920;SDS011;447;51.332;6.778;2024-03-08T07:53:13;20.90;;;15.30;;
920;SDS011;447;51.332;6.778;2024-03-08T07:55:41;16.00;;;13.90;;
920;SDS011;447;51.332;6.778;2024-03-08T07:58:09;22.83;;;16.23;;
920;SDS011;447;51.332;6.778;2024-03-08T08:00:37;23.90;;;16.37;;
920;SDS011;447;51.332;6.778;2024-03-08T08:03:05;22.60;;;16.37;;
920;SDS011;447;51.332;6.778;2024-03-08T08:05:34;21.00;;;15.83;;
920;SDS011;447;51.332;6.778;2024-03-08T08:08:10;21.47;;;14.70;;
920;SDS011;447;51.332;6.778;2024-03-08T08:10:36;23.67;;;14.73;;
920;SDS011;447;51.332;6.778;2024-03-08T08:13:03;19.93;;;15.40;;
920;SDS011;447;51.332;6.778;2024-03-08T08:15:31;20.50;;;14.63;;
920;SDS011;447;51.332;6.778;2024-03-08T08:18:00;21.33;;;14.90;;
920;SDS011;447;51.332;6.778;2024-03-08T08:20:28;18.40;;;14.87;;
920;SDS011;447;51.332;6.778;2024-03-08T08:22:58;20.37;;;14.30;;
920;SDS011;447;51.332;6.778;2024-03-08T08:25:25;21.27;;;14.93;;
920;SDS011;447;51.332;6.778;2024-03-08T08:27:51;20.13;;;14.93;;
920;SDS011;447;51.332;6.778;2024-03-08T08:30:22;18.37;;;14.30;;
920;SDS011;447;51.332;6.778;2024-03-08T08:32:48;17.90;;;14.67;;
920;SDS011;447;51.332;6.778;2024-03-08T08:35:14;17.57;;;13.30;;
920;SDS011;447;51.332;6.778;2024-03-08T08:37:45;21.80;;;14.73;;
920;SDS011;447;51.332;6.778;2024-03-08T08:40:14;19.37;;;14.10;;
920;SDS011;447;51.332;6.778;2024-03-08T08:42:40;20.83;;;14.03;;
920;SDS011;447;51.332;6.778;2024-03-08T08:45:07;16.03;;;13.90;;
920;SDS011;447;51.332;6.778;2024-03-08T08:47:36;20.97;;;13.97;;
920;SDS011;447;51.332;6.778;2024-03-08T08:50:08;19.53;;;13.73;;
920;SDS011;447;51.332;6.778;2024-03-08T08:52:38;20.50;;;13.83;;
920;SDS011;447;51.332;6.778;2024-03-08T08:55:05;17.70;;;14.03;;
920;SDS011;447;51.332;6.778;2024-03-08T08:57:32;18.00;;;13.90;;
920;SDS011;447;51.332;6.778;2024-03-08T08:59:59;18.80;;;14.40;;
920;SDS011;447;51.332;6.778;2024-03-08T09:02:29;19.73;;;14.67;;
920;SDS011;447;51.332;6.778;2024-03-08T09:05:00;18.40;;;13.60;;
920;SDS011;447;51.332;6.778;2024-03-08T09:07:29;20.07;;;14.80;;
920;SDS011;447;51.332;6.778;2024-03-08T09:09:55;23.53;;;15.93;;
920;SDS011;447;51.332;6.778;2024-03-08T09:12:23;18.10;;;13.50;;
920;SDS011;447;51.332;6.778;2024-03-08T09:14:50;19.67;;;14.87;;
920;SDS011;447;51.332;6.778;2024-03-08T09:17:16;19.10;;;13.70;;
920;SDS011;447;51.332;6.778;2024-03-08T09:19:49;19.30;;;13.53;;
920;SDS011;447;51.332;6.778;2024-03-08T09:22:15;19.07;;;13.37;;
920;SDS011;447;51.332;6.778;2024-03-08T09:24:41;21.47;;;14.00;;
920;SDS011;447;51.332;6.778;2024-03-08T09:27:15;18.07;;;13.43;;
920;SDS011;447;51.332;6.778;2024-03-08T09:29:42;17.40;;;13.90;;
920;SDS011;447;51.332;6.778;2024-03-08T09:32:09;17.80;;;13.53;;
920;SDS011;447;51.332;6.778;2024-03-08T09:34:37;18.17;;;12.77;;
920;SDS011;447;51.332;6.778;2024-03-08T09:37:03;18.73;;;13.70;;
920;SDS011;447;51.332;6.778;2024-03-08T09:39:30;18.23;;;12.70;;
920;SDS011;447;51.332;6.778;2024-03-08T09:42:00;18.17;;;13.90;;
920;SDS011;447;51.332;6.778;2024-03-08T09:44:32;19.30;;;14.17;;
920;SDS011;447;51.332;6.778;2024-03-08T09:47:03;16.13;;;12.67;;
920;SDS011;447;51.332;6.778;2024-03-08T09:49:30;17.50;;;13.13;;
920;SDS011;447;51.332;6.778;2024-03-08T09:51:56;16.30;;;12.60;;
920;SDS011;447;51.332;6.778;2024-03-08T09:54:23;18.20;;;12.80;;
920;SDS011;447;51.332;6.778;2024-03-08T09:56:52;19.23;;;13.60;;
920;SDS011;447;51.332;6.778;2024-03-08T09:59:18;17.00;;;12.53;;
920;SDS011;447;51.332;6.778;2024-03-08T10:01:55;17.40;;;12.37;;
920;SDS011;447;51.332;6.778;2024-03-08T10:04:24;16.20;;;13.17;;
920;SDS011;447;51.332;6.778;2024-03-08T10:06:57;15.07;;;12.07;;
920;SDS011;447;51.332;6.778;2024-03-08T10:09:24;16.43;;;12.80;;
920;SDS011;447;51.332;6.778;2024-03-08T10:11:58;15.93;;;12.37;;
920;SDS011;447;51.332;6.778;2024-03-08T10:14:27;15.10;;;12.80;;
920;SDS011;447;51.332;6.778;2024-03-08T10:16:54;19.70;;;13.47;;
920;SDS011;447;51.332;6.778;2024-03-08T10:19:25;16.53;;;12.30;;
920;SDS011;447;51.332;6.778;2024-03-08T10:21:53;17.10;;;11.40;;
920;SDS011;447;51.332;6.778;2024-03-08T10:24:26;15.83;;;12.57;;
920;SDS011;447;51.332;6.778;2024-03-08T10:26:53;14.40;;;11.33;;
920;SDS011;447;51.332;6.778;2024-03-08T10:29:23;17.20;;;11.90;;
920;SDS011;447;51.332;6.778;2024-03-08T10:31:52;16.50;;;12.20;;
920;SDS011;447;51.332;6.778;2024-03-08T10:34:20;16.93;;;12.60;;
920;SDS011;447;51.332;6.778;2024-03-08T10:36:49;15.40;;;12.20;;
920;SDS011;447;51.332;6.778;2024-03-08T10:39:23;14.37;;;10.80;;
920;SDS011;447;51.332;6.778;2024-03-08T10:41:56;15.40;;;12.27;;
920;SDS011;447;51.332;6.778;2024-03-08T10:47:12;14.63;;;11.60;;
920;SDS011;447;51.332;6.778;2024-03-08T10:52:22;12.47;;;10.70;;
920;SDS011;447;51.332;6.778;2024-03-08T10:54:51;14.20;;;10.77;;
920;SDS011;447;51.332;6.778;2024-03-08T10:57:20;13.17;;;10.20;;
920;SDS011;447;51.332;6.778;2024-03-08T10:59:49;14.53;;;11.07;;
920;SDS011;447;51.332;6.778;2024-03-08T11:02:18;12.97;;;10.20;;
920;SDS011;447;51.332;6.778;2024-03-08T11:04:48;15.70;;;11.43;;
920;SDS011;447;51.332;6.778;2024-03-08T11:07:20;12.23;;;10.37;;
920;SDS011;447;51.332;6.778;2024-03-08T11:09:51;15.90;;;11.33;;
920;SDS011;447;51.332;6.778;2024-03-08T11:12:19;14.70;;;11.20;;
920;SDS011;447;51.332;6.778;2024-03-08T11:14:56;12.53;;;10.33;;
920;SDS011;447;51.332;6.778;2024-03-08T11:19:59;14.27;;;11.00;;
920;SDS011;447;51.332;6.778;2024-03-08T11:22:28;15.40;;;10.60;;
920;SDS011;447;51.332;6.778;2024-03-08T11:25:03;13.90;;;10.73;;
920;SDS011;447;51.332;6.778;2024-03-08T11:27:35;12.40;;;9.13;;
920;SDS011;447;51.332;6.778;2024-03-08T11:30:08;11.63;;;9.17;;
920;SDS011;447;51.332;6.778;2024-03-08T11:32:38;12.17;;;8.70;;
920;SDS011;447;51.332;6.778;2024-03-08T11:35:07;14.20;;;10.37;;
920;SDS011;447;51.332;6.778;2024-03-08T11:37:45;11.63;;;9.23;;
920;SDS011;447;51.332;6.778;2024-03-08T11:40:15;11.30;;;10.10;;
920;SDS011;447;51.332;6.778;2024-03-08T11:42:48;12.03;;;9.37;;
920;SDS011;447;51.332;6.778;2024-03-08T11:45:17;11.77;;;10.03;;
920;SDS011;447;51.332;6.778;2024-03-08T11:47:48;11.13;;;8.90;;
920;SDS011;447;51.332;6.778;2024-03-08T11:50:21;13.40;;;10.60;;
920;SDS011;447;51.332;6.778;2024-03-08T11:52:49;12.43;;;9.30;;
920;SDS011;447;51.332;6.778;2024-03-08T11:55:17;12.47;;;11.03;;
920;SDS011;447;51.332;6.778;2024-03-08T11:57:44;10.00;;;8.90;;
920;SDS011;447;51.332;6.778;2024-03-08T12:00:18;12.27;;;10.50;;
920;SDS011;447;51.332;6.778;2024-03-08T12:03:00;10.80;;;9.40;;
920;SDS011;447;51.332;6.778;2024-03-08T12:05:30;12.90;;;9.40;;
920;SDS011;447;51.332;6.778;2024-03-08T12:07:59;10.17;;;9.17;;
920;SDS011;447;51.332;6.778;2024-03-08T12:10:25;10.40;;;9.27;;
920;SDS011;447;51.332;6.778;2024-03-08T12:12:54;11.17;;;9.63;;
920;SDS011;447;51.332;6.778;2024-03-08T12:15:27;13.23;;;9.50;;
920;SDS011;447;51.332;6.778;2024-03-08T12:17:57;9.80;;;8.83;;
920;SDS011;447;51.332;6.778;2024-03-08T12:20:27;14.37;;;9.77;;
920;SDS011;447;51.332;6.778;2024-03-08T12:22:59;19.93;;;10.53;;
920;SDS011;447;51.332;6.778;2024-03-08T12:25:31;14.17;;;10.73;;
920;SDS011;447;51.332;6.778;2024-03-08T12:28:07;12.13;;;9.50;;
920;SDS011;447;51.332;6.778;2024-03-08T12:30:46;13.27;;;10.43;;
920;SDS011;447;51.332;6.778;2024-03-08T12:33:25;13.80;;;10.20;;
920;SDS011;447;51.332;6.778;2024-03-08T12:35:51;12.33;;;9.50;;
920;SDS011;447;51.332;6.778;2024-03-08T12:38:22;14.27;;;10.30;;
920;SDS011;447;51.332;6.778;2024-03-08T12:40:54;13.07;;;10.20;;
920;SDS011;447;51.332;6.778;2024-03-08T12:43:23;10.77;;;8.77;;
920;SDS011;447;51.332;6.778;2024-03-08T12:45:50;15.07;;;10.37;;
920;SDS011;447;51.332;6.778;2024-03-08T12:48:16;11.87;;;9.47;;
920;SDS011;447;51.332;6.778;2024-03-08T12:50:46;13.20;;;9.90;;
920;SDS011;447;51.332;6.778;2024-03-08T12:53:13;9.80;;;8.47;;
920;SDS011;447;51.332;6.778;2024-03-08T12:55:42;16.70;;;9.50;;
920;SDS011;447;51.332;6.778;2024-03-08T12:58:09;13.17;;;9.40;;
920;SDS011;447;51.332;6.778;2024-03-08T13:00:37;9.10;;;8.00;;
920;SDS011;447;51.332;6.778;2024-03-08T13:03:08;12.23;;;8.60;;
920;SDS011;447;51.332;6.778;2024-03-08T13:05:39;10.10;;;8.90;;
920;SDS011;447;51.332;6.778;2024-03-08T13:08:08;10.73;;;9.40;;
920;SDS011;447;51.332;6.778;2024-03-08T13:10:41;11.23;;;8.47;;
920;SDS011;447;51.332;6.778;2024-03-08T13:13:09;10.00;;;8.60;;
920;SDS011;447;51.332;6.778;2024-03-08T13:15:42;11.53;;;8.53;;
920;SDS011;447;51.332;6.778;2024-03-08T13:18:08;11.77;;;8.17;;
920;SDS011;447;51.332;6.778;2024-03-08T13:20:36;10.00;;;8.30;;
920;SDS011;447;51.332;6.778;2024-03-08T13:23:04;8.40;;;7.50;;
920;SDS011;447;51.332;6.778;2024-03-08T13:25:30;10.93;;;9.63;;
920;SDS011;447;51.332;6.778;2024-03-08T13:28:03;10.70;;;9.60;;
920;SDS011;447;51.332;6.778;2024-03-08T13:30:35;14.40;;;9.77;;
920;SDS011;447;51.332;6.778;2024-03-08T13:33:01;13.47;;;9.83;;
920;SDS011;447;51.332;6.778;2024-03-08T13:35:30;10.80;;;9.30;;
920;SDS011;447;51.332;6.778;2024-03-08T13:37:57;10.37;;;9.37;;
920;SDS011;447;51.332;6.778;2024-03-08T13:40:24;10.77;;;8.80;;
920;SDS011;447;51.332;6.778;2024-03-08T13:42:50;10.83;;;9.17;;
920;SDS011;447;51.332;6.778;2024-03-08T13:45:16;11.40;;;9.10;;
920;SDS011;447;51.332;6.778;2024-03-08T13:47:49;10.20;;;8.47;;
920;SDS011;447;51.332;6.778;2024-03-08T13:50:21;10.87;;;8.67;;
920;SDS011;447;51.332;6.778;2024-03-08T13:52:53;11.43;;;9.47;;
920;SDS011;447;51.332;6.778;2024-03-08T13:55:19;10.30;;;8.73;;
920;SDS011;447;51.332;6.778;2024-03-08T13:57:52;10.90;;;8.97;;
920;SDS011;447;51.332;6.778;2024-03-08T14:00:20;15.87;;;8.90;;
920;SDS011;447;51.332;6.778;2024-03-08T14:02:51;14.03;;;8.73;;
920;SDS011;447;51.332;6.778;2024-03-08T14:05:22;9.50;;;8.20;;
920;SDS011;447;51.332;6.778;2024-03-08T14:07:48;9.30;;;7.50;;
920;SDS011;447;51.332;6.778;2024-03-08T14:10:19;11.80;;;8.73;;
920;SDS011;447;51.332;6.778;2024-03-08T14:12:48;10.00;;;8.77;;
920;SDS011;447;51.332;6.778;2024-03-08T14:15:16;10.93;;;9.00;;
920;SDS011;447;51.332;6.778;2024-03-08T14:17:45;13.70;;;8.70;;
920;SDS011;447;51.332;6.778;2024-03-08T14:20:17;13.00;;;8.20;;
920;SDS011;447;51.332;6.778;2024-03-08T14:22:43;10.97;;;8.83;;
920;SDS011;447;51.332;6.778;2024-03-08T14:25:12;9.90;;;8.83;;
920;SDS011;447;51.332;6.778;2024-03-08T14:27:45;13.20;;;9.50;;
920;SDS011;447;51.332;6.778;2024-03-08T14:30:12;10.43;;;8.93;;
920;SDS011;447;51.332;6.778;2024-03-08T14:32:38;11.73;;;7.87;;
920;SDS011;447;51.332;6.778;2024-03-08T14:35:06;9.97;;;8.50;;
920;SDS011;447;51.332;6.778;2024-03-08T14:37:33;10.20;;;7.87;;
920;SDS011;447;51.332;6.778;2024-03-08T14:40:00;11.10;;;9.13;;
920;SDS011;447;51.332;6.778;2024-03-08T14:42:30;9.73;;;8.40;;
920;SDS011;447;51.332;6.778;2024-03-08T14:44:56;10.63;;;8.77;;
920;SDS011;447;51.332;6.778;2024-03-08T14:47:23;9.40;;;8.37;;
920;SDS011;447;51.332;6.778;2024-03-08T14:49:54;9.13;;;8.10;;
920;SDS011;447;51.332;6.778;2024-03-08T14:52:20;10.03;;;8.40;;
920;SDS011;447;51.332;6.778;2024-03-08T14:54:57;10.20;;;8.67;;
920;SDS011;447;51.332;6.778;2024-03-08T14:57:23;11.13;;;9.23;;
920;SDS011;447;51.332;6.778;2024-03-08T14:59:51;11.47;;;9.50;;
920;SDS011;447;51.332;6.778;2024-03-08T15:02:17;12.17;;;9.70;;
920;SDS011;447;51.332;6.778;2024-03-08T15:04:46;12.97;;;10.47;;
920;SDS011;447;51.332;6.778;2024-03-08T15:07:22;9.83;;;8.40;;
920;SDS011;447;51.332;6.778;2024-03-08T15:09:52;11.63;;;9.27;;
920;SDS011;447;51.332;6.778;2024-03-08T15:12:18;13.93;;;11.13;;
920;SDS011;447;51.332;6.778;2024-03-08T15:14:47;15.07;;;11.20;;
920;SDS011;447;51.332;6.778;2024-03-08T15:17:18;13.43;;;10.80;;
920;SDS011;447;51.332;6.778;2024-03-08T15:19:47;11.47;;;10.20;;
920;SDS011;447;51.332;6.778;2024-03-08T15:22:14;14.80;;;10.87;;
920;SDS011;447;51.332;6.778;2024-03-08T15:24:43;17.30;;;10.67;;
920;SDS011;447;51.332;6.778;2024-03-08T15:27:16;15.60;;;10.87;;
920;SDS011;447;51.332;6.778;2024-03-08T15:29:42;15.53;;;10.20;;
920;SDS011;447;51.332;6.778;2024-03-08T15:32:13;16.50;;;11.03;;
920;SDS011;447;51.332;6.778;2024-03-08T15:34:45;13.50;;;10.13;;
920;SDS011;447;51.332;6.778;2024-03-08T15:37:11;13.43;;;10.07;;